createdAt,value
2018-04-24T00:00:41.821Z,0
2018-04-24T00:01:51.326Z,0
2018-04-24T00:03:00.835Z,0
2018-04-24T00:04:10.334Z,0
2018-04-24T00:05:19.834Z,0
2018-04-24T00:06:29.058Z,0
2018-04-24T00:07:38.555Z,0
2018-04-24T00:08:48.050Z,0
2018-04-24T00:09:58.224Z,0
2018-04-24T00:11:07.181Z,0
2018-04-24T00:12:16.948Z,0
2018-04-24T00:13:26.178Z,0
2018-04-24T00:14:35.939Z,0
2018-04-24T00:15:44.631Z,0
2018-04-24T00:16:53.590Z,0
2018-04-24T00:18:02.819Z,0
2018-04-24T00:19:11.776Z,0
2018-04-24T00:20:20.740Z,0
2018-04-24T00:21:29.965Z,0
2018-04-24T00:22:39.738Z,0
2018-04-24T00:23:48.709Z,0
2018-04-24T00:24:58.470Z,0
2018-04-24T00:26:07.767Z,0
2018-04-24T00:27:17.552Z,0
2018-04-24T00:28:27.326Z,0
2018-04-24T00:29:36.823Z,0
2018-04-24T00:30:46.049Z,0
2018-04-24T00:31:55.890Z,0
2018-04-24T00:33:05.924Z,0
2018-04-24T00:34:15.431Z,0
2018-04-24T00:35:24.934Z,0
2018-04-24T00:36:34.763Z,0
2018-04-24T00:37:43.726Z,0
2018-04-24T00:38:52.690Z,0
2018-04-24T00:40:02.186Z,0
2018-04-24T00:41:11.431Z,0
2018-04-24T00:42:20.656Z,0
2018-04-24T00:43:30.150Z,0
2018-04-24T00:44:39.920Z,0
2018-04-24T00:45:50.102Z,0
2018-04-24T00:46:59.960Z,0
2018-04-24T00:48:08.654Z,0
2018-04-24T00:49:18.429Z,0
2018-04-24T00:50:27.925Z,0
2018-04-24T00:51:37.418Z,0
2018-04-24T00:52:46.916Z,0
2018-04-24T00:53:55.878Z,0
2018-04-24T00:55:04.839Z,0
2018-04-24T00:56:14.342Z,0
2018-04-24T00:57:23.834Z,0
2018-04-24T00:58:32.526Z,0
2018-04-24T00:59:42.294Z,0
2018-04-24T01:00:52.052Z,0
2018-04-24T01:02:01.823Z,0
2018-04-24T01:03:10.783Z,0
2018-04-24T01:04:20.276Z,0
2018-04-24T01:05:29.777Z,0
2018-04-24T01:06:39.363Z,0
2018-04-24T01:07:49.174Z,0
2018-04-24T01:08:58.955Z,0
2018-04-24T01:10:08.181Z,0
2018-04-24T01:11:17.947Z,0
2018-04-24T01:12:27.181Z,0
2018-04-24T01:13:36.147Z,0
2018-04-24T01:14:44.845Z,0
2018-04-24T01:15:54.338Z,0
2018-04-24T01:17:03.294Z,0
2018-04-24T01:18:13.333Z,0
2018-04-24T01:19:23.367Z,0
2018-04-24T01:20:32.874Z,0
2018-04-24T01:21:42.105Z,0
2018-04-24T01:22:51.611Z,0
2018-04-24T01:24:01.121Z,0
2018-04-24T01:25:11.157Z,0
2018-04-24T01:26:20.389Z,0
2018-04-24T01:27:29.620Z,0
2018-04-24T01:28:38.582Z,0
2018-04-24T01:29:48.347Z,0
2018-04-24T01:30:58.115Z,0
2018-04-24T01:32:07.613Z,0
2018-04-24T01:33:17.131Z,0
2018-04-24T01:34:26.897Z,0
2018-04-24T01:35:36.128Z,0
2018-04-24T01:36:45.626Z,0
2018-04-24T01:37:55.398Z,0
2018-04-24T01:39:05.163Z,0
2018-04-24T01:40:14.394Z,0
2018-04-24T01:41:23.359Z,0
2018-04-24T01:42:32.848Z,0
2018-04-24T01:43:42.611Z,0
2018-04-24T01:45:21.615Z,0
2018-04-24T01:46:30.848Z,0
2018-04-24T01:47:40.611Z,0
2018-04-24T01:48:50.102Z,0
2018-04-24T01:49:59.599Z,0
2018-04-24T01:51:09.367Z,0
2018-04-24T01:52:18.325Z,0
2018-04-24T01:53:27.818Z,0
2018-04-24T01:54:37.592Z,0
2018-04-24T01:55:46.822Z,0
2018-04-24T01:56:56.326Z,0
2018-04-24T01:58:05.823Z,0
2018-04-24T01:59:15.323Z,0
2018-04-24T02:00:24.818Z,0
2018-04-24T02:01:33.775Z,0
2018-04-24T02:02:43.548Z,0
2018-04-24T02:03:53.043Z,0
2018-04-24T02:05:02.283Z,0
2018-04-24T02:06:11.246Z,0
2018-04-24T02:07:21.021Z,0
2018-04-24T02:08:30.253Z,0
2018-04-24T02:09:40.289Z,0
2018-04-24T02:10:49.520Z,0
2018-04-24T02:11:58.757Z,0
2018-04-24T02:13:08.254Z,0
2018-04-24T02:14:18.037Z,0
2018-04-24T02:15:27.265Z,0
2018-04-24T02:16:37.036Z,0
2018-04-24T02:17:46.529Z,0
2018-04-24T02:18:55.766Z,0
2018-04-24T02:20:04.993Z,0
2018-04-24T02:21:14.757Z,0
2018-04-24T02:22:24.261Z,0
2018-04-24T02:23:33.760Z,0
2018-04-24T02:24:46.266Z,0
2018-04-24T02:25:55.231Z,0
2018-04-24T02:27:04.738Z,0
2018-04-24T02:28:14.241Z,0
2018-04-24T02:29:23.483Z,0
2018-04-24T02:30:33.249Z,0
2018-04-24T02:31:42.479Z,0
2018-04-24T02:32:51.978Z,0
2018-04-24T02:34:01.748Z,0
2018-04-24T02:35:10.702Z,0
2018-04-24T02:36:19.664Z,0
2018-04-24T02:37:29.178Z,0
2018-04-24T02:38:38.949Z,0
2018-04-24T02:39:48.719Z,0
2018-04-24T02:40:58.219Z,0
2018-04-24T02:42:08.008Z,0
2018-04-24T02:43:17.509Z,0
2018-04-24T02:44:26.752Z,0
2018-04-24T02:45:36.527Z,0
2018-04-24T02:46:46.025Z,0
2018-04-24T02:47:55.803Z,0
2018-04-24T02:49:05.058Z,0
2018-04-24T02:50:14.555Z,0
2018-04-24T02:51:24.054Z,0
2018-04-24T02:52:33.834Z,0
2018-04-24T02:53:43.602Z,0
2018-04-24T02:54:53.382Z,0
2018-04-24T02:56:03.430Z,0
2018-04-24T02:57:12.663Z,0
2018-04-24T02:58:22.169Z,0
2018-04-24T02:59:32.007Z,0
2018-04-24T03:00:41.764Z,0
2018-04-24T03:01:51.788Z,0
2018-04-24T03:03:01.546Z,0
2018-04-24T03:04:11.593Z,0
2018-04-24T03:05:21.620Z,0
2018-04-24T03:06:31.116Z,0
2018-04-24T03:07:40.877Z,0
2018-04-24T03:08:50.368Z,0
2018-04-24T03:09:59.848Z,0
2018-04-24T03:11:09.621Z,0
2018-04-24T03:12:19.411Z,0
2018-04-24T03:13:29.175Z,0
2018-04-24T03:14:38.659Z,0
2018-04-24T03:15:48.412Z,0
2018-04-24T03:16:57.632Z,0
2018-04-24T03:18:06.852Z,0
2018-04-24T03:19:16.596Z,0
2018-04-24T03:20:26.077Z,0
2018-04-24T03:21:35.845Z,0
2018-04-24T03:22:45.057Z,0
2018-04-24T03:23:54.551Z,0
2018-04-24T03:25:04.043Z,0
2018-04-24T03:26:13.793Z,0
2018-04-24T03:27:23.542Z,0
2018-04-24T03:28:33.301Z,0
2018-04-24T03:29:42.267Z,0
2018-04-24T03:30:51.753Z,0
2018-04-24T03:32:01.248Z,0
2018-04-24T03:33:10.195Z,0
2018-04-24T03:34:19.480Z,0
2018-04-24T03:35:29.223Z,0
2018-04-24T03:36:38.978Z,0
2018-04-24T03:37:48.999Z,0
2018-04-24T03:38:57.946Z,0
2018-04-24T03:40:07.429Z,0
2018-04-24T03:41:17.447Z,0
2018-04-24T03:42:26.940Z,0
2018-04-24T03:43:36.699Z,0
2018-04-24T03:44:46.449Z,0
2018-04-24T03:45:55.397Z,0
2018-04-24T03:47:04.349Z,0
2018-04-24T03:48:13.831Z,0
2018-04-24T03:49:23.847Z,0
2018-04-24T03:50:33.598Z,0
2018-04-24T03:51:42.812Z,0
2018-04-24T03:52:52.832Z,0
2018-04-24T03:54:01.784Z,0
2018-04-24T03:55:11.271Z,0
2018-04-24T03:56:20.757Z,0
2018-04-24T03:57:30.243Z,0
2018-04-24T03:58:39.718Z,0
2018-04-24T03:59:48.398Z,0
2018-04-24T04:00:57.620Z,0
2018-04-24T04:02:06.834Z,0
2018-04-24T04:03:16.859Z,0
2018-04-24T04:04:26.344Z,0
2018-04-24T04:05:35.573Z,0
2018-04-24T04:06:45.326Z,0
2018-04-24T04:07:54.819Z,0
2018-04-24T04:09:04.313Z,0
2018-04-24T04:10:13.534Z,0
2018-04-24T04:11:22.756Z,0
2018-04-24T04:12:31.967Z,0
2018-04-24T04:13:41.182Z,0
2018-04-24T04:14:50.674Z,0
2018-04-24T04:16:01.041Z,0
2018-04-24T04:17:10.186Z,0
2018-04-24T04:18:19.405Z,0
2018-04-24T04:19:28.622Z,0
2018-04-24T04:20:38.100Z,0
2018-04-24T04:21:47.059Z,0
2018-04-24T04:22:56.541Z,0
2018-04-24T04:24:06.299Z,0
2018-04-24T04:25:15.518Z,0
2018-04-24T04:26:24.733Z,0
2018-04-24T04:27:33.950Z,0
2018-04-24T04:28:43.962Z,0
2018-04-24T04:29:52.914Z,0
2018-04-24T04:31:02.932Z,0
2018-04-24T04:32:12.152Z,0
2018-04-24T04:33:21.900Z,0
2018-04-24T04:34:30.850Z,0
2018-04-24T04:35:39.801Z,0
2018-04-24T04:36:49.290Z,0
2018-04-24T04:37:59.039Z,0
2018-04-24T04:39:08.258Z,0
2018-04-24T04:40:18.011Z,0
2018-04-24T04:41:27.904Z,0
2018-04-24T04:42:37.485Z,0
2018-04-24T04:43:46.705Z,0
2018-04-24T04:44:55.950Z,0
2018-04-24T04:46:05.174Z,0
2018-04-24T04:47:14.669Z,0
2018-04-24T04:48:24.153Z,0
2018-04-24T04:49:33.640Z,0
2018-04-24T04:50:43.659Z,0
2018-04-24T04:51:53.151Z,0
2018-04-24T04:53:02.099Z,0
2018-04-24T04:54:11.316Z,0
2018-04-24T04:55:20.800Z,0
2018-04-24T04:56:30.558Z,0
2018-04-24T04:57:39.773Z,0
2018-04-24T04:58:49.529Z,0
2018-04-24T04:59:59.017Z,0
2018-04-24T05:01:07.971Z,0
2018-04-24T05:02:17.457Z,0
2018-04-24T05:03:26.680Z,0
2018-04-24T05:04:36.164Z,0
2018-04-24T05:05:45.651Z,0
2018-04-24T05:06:54.874Z,0
2018-04-24T05:08:04.093Z,0
2018-04-24T05:09:13.838Z,0
2018-04-24T05:10:22.787Z,0
2018-04-24T05:11:31.736Z,0
2018-04-24T05:12:41.221Z,0
2018-04-24T05:13:50.700Z,0
2018-04-24T05:15:00.450Z,0
2018-04-24T05:16:09.674Z,0
2018-04-24T05:17:19.424Z,0
2018-04-24T05:18:28.645Z,0
2018-04-24T05:19:37.600Z,0
2018-04-24T05:20:46.811Z,0
2018-04-24T05:21:56.563Z,0
2018-04-24T05:23:06.050Z,0
2018-04-24T05:24:15.812Z,0
2018-04-24T05:25:25.819Z,0
2018-04-24T05:26:35.853Z,0
2018-04-24T05:27:44.879Z,0
2018-04-24T05:28:53.830Z,0
2018-04-24T05:30:03.311Z,0
2018-04-24T05:31:13.059Z,0
2018-04-24T05:32:22.810Z,0
2018-04-24T05:33:32.557Z,0
2018-04-24T05:34:42.051Z,0
2018-04-24T05:35:51.786Z,0
2018-04-24T05:37:01.370Z,0
2018-04-24T05:38:10.584Z,0
2018-04-24T05:39:20.063Z,0
2018-04-24T05:40:29.283Z,0
2018-04-24T05:41:39.050Z,0
2018-04-24T05:42:48.802Z,0
2018-04-24T05:43:58.546Z,0
2018-04-24T05:45:07.493Z,0
2018-04-24T05:46:17.254Z,0
2018-04-24T05:47:26.735Z,0
2018-04-24T05:48:35.686Z,0
2018-04-24T05:49:45.437Z,0
2018-04-24T05:50:54.923Z,0
2018-04-24T05:52:04.154Z,0
2018-04-24T05:53:14.061Z,0
2018-04-24T05:54:24.079Z,0
2018-04-24T05:55:33.293Z,0
2018-04-24T05:56:42.513Z,0
2018-04-24T05:57:52.400Z,0
2018-04-24T05:59:01.516Z,0
2018-04-24T06:00:10.468Z,0
2018-04-24T06:01:19.686Z,0
2018-04-24T06:02:29.165Z,0
2018-04-24T06:03:38.399Z,0
2018-04-24T06:04:47.620Z,0
2018-04-24T06:05:56.838Z,0
2018-04-24T06:07:05.789Z,0
2018-04-24T06:08:15.312Z,0
2018-04-24T06:09:25.171Z,0
2018-04-24T06:10:34.654Z,0
2018-04-24T06:11:44.221Z,0
2018-04-24T06:12:53.380Z,0
2018-04-24T06:14:03.005Z,0
2018-04-24T06:15:12.984Z,0
2018-04-24T06:16:22.473Z,0
2018-04-24T06:17:32.034Z,0
2018-04-24T06:18:41.269Z,0
2018-04-24T06:19:50.748Z,0
2018-04-24T06:21:00.242Z,0
2018-04-24T06:22:09.190Z,0
2018-04-24T06:23:18.672Z,0
2018-04-24T06:24:27.888Z,0
2018-04-24T06:25:37.369Z,0
2018-04-24T06:26:46.583Z,0
2018-04-24T06:27:55.800Z,0
2018-04-24T06:29:05.557Z,0
2018-04-24T06:30:15.045Z,0
2018-04-24T06:31:24.801Z,0
2018-04-24T06:32:34.015Z,0
2018-04-24T06:33:43.500Z,0
2018-04-24T06:34:53.253Z,0
2018-04-24T06:36:03.219Z,0
2018-04-24T06:37:12.445Z,0
2018-04-24T06:38:21.670Z,0
2018-04-24T06:39:31.431Z,0
2018-04-24T06:40:41.178Z,0
2018-04-24T06:41:50.397Z,0
2018-04-24T06:43:00.147Z,0
2018-04-24T06:44:09.913Z,0
2018-04-24T06:45:18.865Z,0
2018-04-24T06:46:28.621Z,0
2018-04-24T06:47:37.836Z,0
2018-04-24T06:48:47.865Z,0
2018-04-24T06:49:57.371Z,0
2018-04-24T06:51:06.857Z,0
2018-04-24T06:52:16.343Z,0
2018-04-24T06:53:26.102Z,0
2018-04-24T06:54:35.317Z,0
2018-04-24T06:55:44.270Z,0
2018-04-24T06:56:54.021Z,0
2018-04-24T06:58:04.048Z,0
2018-04-24T06:59:13.800Z,0
2018-04-24T07:00:23.017Z,0
2018-04-24T07:01:32.767Z,0
2018-04-24T07:02:42.816Z,0
2018-04-24T07:03:52.304Z,0
2018-04-24T07:05:01.800Z,0
2018-04-24T07:06:11.287Z,0
2018-04-24T07:07:20.236Z,0
2018-04-24T07:08:29.179Z,0
2018-04-24T07:09:38.666Z,0
2018-04-24T07:10:48.210Z,0
2018-04-24T07:11:57.702Z,0
2018-04-24T07:13:07.732Z,0
2018-04-24T07:14:17.481Z,0
2018-04-24T07:15:27.452Z,0
2018-04-24T07:16:37.586Z,0
2018-04-24T07:17:47.069Z,0
2018-04-24T07:18:56.838Z,0
2018-04-24T07:20:06.864Z,0
2018-04-24T07:21:16.192Z,0
2018-04-24T07:22:25.408Z,0
2018-04-24T07:23:35.164Z,0
2018-04-24T07:24:44.933Z,0
2018-04-24T07:25:54.157Z,0
2018-04-24T07:27:04.097Z,0
2018-04-24T07:28:14.039Z,0
2018-04-24T07:29:23.520Z,0
2018-04-24T07:30:32.466Z,0
2018-04-24T07:31:41.953Z,0
2018-04-24T07:32:51.817Z,0
2018-04-24T07:34:01.316Z,0
2018-04-24T07:35:10.269Z,0
2018-04-24T07:36:19.485Z,0
2018-04-24T07:37:28.699Z,4
2018-04-24T07:38:38.188Z,4
2018-04-24T07:39:47.685Z,4
2018-04-24T07:40:57.719Z,0
2018-04-24T07:42:07.214Z,0
2018-04-24T07:43:16.426Z,0
2018-04-24T07:44:25.380Z,0
2018-04-24T07:45:34.857Z,4
2018-04-24T07:46:44.845Z,4
2018-04-24T07:47:55.008Z,4
2018-04-24T07:49:04.219Z,4
2018-04-24T07:50:13.741Z,4
2018-04-24T07:51:23.772Z,4
2018-04-24T07:52:32.994Z,0
2018-04-24T07:53:41.950Z,0
2018-04-24T07:54:51.441Z,4
2018-04-24T07:56:00.391Z,4
2018-04-24T07:57:09.610Z,0
2018-04-24T07:58:19.093Z,0
2018-04-24T07:59:28.743Z,4
2018-04-24T08:00:37.424Z,0
2018-04-24T08:01:46.644Z,0
2018-04-24T08:02:55.860Z,4
2018-04-24T08:04:05.358Z,4
2018-04-24T08:05:14.839Z,0
2018-04-24T08:06:24.609Z,0
2018-04-24T08:07:33.831Z,4
2018-04-24T08:08:43.049Z,0
2018-04-24T08:09:51.995Z,0
2018-04-24T08:11:01.764Z,0
2018-04-24T08:12:11.249Z,4
2018-04-24T08:13:20.733Z,0
2018-04-24T08:14:30.210Z,4
2018-04-24T08:15:39.429Z,0
2018-04-24T08:16:49.184Z,4
2018-04-24T08:17:59.205Z,4
2018-04-24T08:19:08.146Z,0
2018-04-24T08:20:17.386Z,0
2018-04-24T08:21:26.611Z,0
2018-04-24T08:22:36.362Z,0
2018-04-24T08:23:46.109Z,4
2018-04-24T08:24:55.602Z,4
2018-04-24T08:26:05.371Z,4
2018-04-24T08:27:14.585Z,0
2018-04-24T08:28:24.338Z,4
2018-04-24T08:29:34.096Z,4
2018-04-24T08:30:44.119Z,4
2018-04-24T08:31:53.881Z,4
2018-04-24T08:33:03.626Z,4
2018-04-24T08:34:13.120Z,0
2018-04-24T08:35:22.338Z,0
2018-04-24T08:36:31.820Z,0
2018-04-24T08:37:41.310Z,0
2018-04-24T08:38:51.346Z,4
2018-04-24T08:40:01.508Z,4
2018-04-24T08:41:11.056Z,0
2018-04-24T08:42:20.380Z,0
2018-04-24T08:43:29.596Z,0
2018-04-24T08:44:39.347Z,4
2018-04-24T08:45:48.564Z,0
2018-04-24T08:46:58.047Z,0
2018-04-24T08:48:07.656Z,0
2018-04-24T08:49:17.141Z,0
2018-04-24T08:50:26.901Z,0
2018-04-24T08:51:36.122Z,4
2018-04-24T08:52:45.340Z,0
2018-04-24T08:53:54.552Z,4
2018-04-24T08:55:04.104Z,4
2018-04-24T08:56:13.588Z,0
2018-04-24T08:57:23.336Z,4
2018-04-24T08:58:32.557Z,4
2018-04-24T08:59:42.577Z,0
2018-04-24T09:00:51.807Z,4
2018-04-24T09:02:01.681Z,0
2018-04-24T09:03:11.007Z,4
2018-04-24T09:04:20.225Z,0
2018-04-24T09:05:29.708Z,4
2018-04-24T09:06:38.655Z,4
2018-04-24T09:07:48.139Z,4
2018-04-24T09:08:57.922Z,4
2018-04-24T09:10:07.424Z,0
2018-04-24T09:11:16.648Z,4
2018-04-24T09:12:25.865Z,4
2018-04-24T09:13:35.076Z,4
2018-04-24T09:14:44.557Z,4
2018-04-24T09:15:54.044Z,0
2018-04-24T09:17:03.270Z,4
2018-04-24T09:18:13.021Z,4
2018-04-24T09:19:22.508Z,4
2018-04-24T09:20:31.732Z,0
2018-04-24T09:21:40.945Z,0
2018-04-24T09:22:50.158Z,4
2018-04-24T09:23:59.642Z,4
2018-04-24T09:25:09.399Z,0
2018-04-24T09:26:18.350Z,0
2018-04-24T09:27:27.569Z,4
2018-04-24T09:28:36.515Z,4
2018-04-24T09:29:46.526Z,4
2018-04-24T09:30:56.337Z,4
2018-04-24T09:32:05.549Z,8
2018-04-24T09:33:14.768Z,4
2018-04-24T09:34:24.254Z,4
2018-04-24T09:35:33.736Z,4
2018-04-24T09:36:43.264Z,4
2018-04-24T09:37:52.707Z,8
2018-04-24T09:39:02.084Z,4
2018-04-24T09:40:12.294Z,8
2018-04-24T09:41:22.137Z,12
2018-04-24T09:42:31.356Z,8
2018-04-24T09:43:40.297Z,8
2018-04-24T09:44:49.781Z,12
2018-04-24T09:45:59.318Z,12
2018-04-24T09:47:08.899Z,8
2018-04-24T09:48:18.378Z,12
2018-04-24T09:49:28.667Z,8
2018-04-24T09:50:38.781Z,8
2018-04-24T09:51:48.269Z,8
2018-04-24T09:52:58.282Z,12
2018-04-24T09:54:08.044Z,12
2018-04-24T09:55:17.259Z,12
2018-04-24T09:56:26.745Z,12
2018-04-24T09:57:36.772Z,12
2018-04-24T09:58:46.253Z,8
2018-04-24T09:59:55.467Z,8
2018-04-24T10:01:04.954Z,8
2018-04-24T10:02:14.855Z,8
2018-04-24T10:03:24.723Z,8
2018-04-24T10:04:34.745Z,8
2018-04-24T10:05:44.492Z,4
2018-04-24T10:06:54.239Z,4
2018-04-24T10:08:03.461Z,8
2018-04-24T10:09:12.747Z,4
2018-04-24T10:10:22.247Z,8
2018-04-24T10:11:32.005Z,8
2018-04-24T10:12:42.019Z,8
2018-04-24T10:13:52.161Z,8
2018-04-24T10:15:01.915Z,4
2018-04-24T10:16:11.666Z,4
2018-04-24T10:17:20.614Z,4
2018-04-24T10:18:29.832Z,8
2018-04-24T10:19:39.403Z,4
2018-04-24T10:20:48.985Z,4
2018-04-24T10:21:58.740Z,4
2018-04-24T10:23:08.219Z,4
2018-04-24T10:24:17.438Z,4
2018-04-24T10:25:27.187Z,4
2018-04-24T10:26:36.933Z,4
2018-04-24T10:27:46.689Z,4
2018-04-24T10:28:55.913Z,4
2018-04-24T10:30:04.858Z,8
2018-04-24T10:31:14.350Z,4
2018-04-24T10:32:23.828Z,4
2018-04-24T10:33:33.583Z,4
2018-04-24T10:34:42.530Z,8
2018-04-24T10:35:52.017Z,8
2018-04-24T10:37:01.231Z,8
2018-04-24T10:38:10.719Z,8
2018-04-24T10:39:20.214Z,4
2018-04-24T10:40:29.956Z,8
2018-04-24T10:41:39.166Z,8
2018-04-24T10:42:48.915Z,8
2018-04-24T10:43:58.918Z,8
2018-04-24T10:45:08.140Z,8
2018-04-24T10:46:17.401Z,12
2018-04-24T10:47:27.176Z,12
2018-04-24T10:48:36.666Z,12
2018-04-24T10:49:46.683Z,8
2018-04-24T10:50:56.169Z,12
2018-04-24T10:52:05.125Z,16
2018-04-24T10:53:14.437Z,12
2018-04-24T10:54:24.480Z,12
2018-04-24T10:55:34.313Z,12
2018-04-24T10:56:43.805Z,12
2018-04-24T10:57:53.034Z,8
2018-04-24T10:59:02.791Z,16
2018-04-24T11:00:12.280Z,12
2018-04-24T11:01:21.759Z,16
2018-04-24T11:02:30.978Z,16
2018-04-24T11:03:40.462Z,16
2018-04-24T11:04:49.686Z,16
2018-04-24T11:05:58.898Z,16
2018-04-24T11:07:08.127Z,12
2018-04-24T11:08:18.153Z,16
2018-04-24T11:09:27.375Z,12
2018-04-24T11:10:37.133Z,8
2018-04-24T11:11:46.625Z,8
2018-04-24T11:12:56.463Z,12
2018-04-24T11:14:05.143Z,8
2018-04-24T11:15:14.896Z,8
2018-04-24T11:16:24.111Z,8
2018-04-24T11:17:33.332Z,8
2018-04-24T11:18:42.553Z,12
2018-04-24T11:19:52.042Z,20
2018-04-24T11:21:01.793Z,24
2018-04-24T11:22:11.277Z,24
2018-04-24T11:23:20.758Z,24
2018-04-24T11:24:29.976Z,20
2018-04-24T11:25:39.193Z,24
2018-04-24T11:26:48.316Z,24
2018-04-24T11:27:58.436Z,24
2018-04-24T11:29:08.190Z,20
2018-04-24T11:30:17.912Z,24
2018-04-24T11:31:27.641Z,28
2018-04-24T11:32:37.384Z,16
2018-04-24T11:33:47.134Z,16
2018-04-24T11:34:56.622Z,16
2018-04-24T11:36:06.254Z,20
2018-04-24T11:37:15.472Z,24
2018-04-24T11:38:24.422Z,28
2018-04-24T11:39:33.904Z,24
2018-04-24T11:40:43.657Z,28
2018-04-24T11:41:52.878Z,24
2018-04-24T11:43:02.900Z,24
2018-04-24T11:44:12.902Z,20
2018-04-24T11:45:22.040Z,20
2018-04-24T11:46:31.532Z,16
2018-04-24T11:47:41.634Z,20
2018-04-24T11:48:51.120Z,28
2018-04-24T11:50:00.336Z,16
2018-04-24T11:51:09.021Z,20
2018-04-24T11:52:18.509Z,16
2018-04-24T11:53:27.724Z,20
2018-04-24T11:54:37.209Z,16
2018-04-24T11:55:46.688Z,12
2018-04-24T11:56:56.505Z,12
2018-04-24T11:58:05.756Z,12
2018-04-24T11:59:15.235Z,12
2018-04-24T12:00:24.990Z,20
2018-04-24T12:01:34.481Z,24
2018-04-24T12:02:44.269Z,12
2018-04-24T12:03:53.866Z,16
2018-04-24T12:05:02.825Z,12
2018-04-24T12:06:12.315Z,16
2018-04-24T12:07:22.341Z,20
2018-04-24T12:08:31.834Z,20
2018-04-24T12:09:41.876Z,24
2018-04-24T12:10:50.823Z,20
2018-04-24T12:12:00.580Z,20
2018-04-24T12:13:10.074Z,20
2018-04-24T12:14:19.563Z,20
2018-04-24T12:15:29.320Z,28
2018-04-24T12:16:38.536Z,28
2018-04-24T12:17:48.287Z,28
2018-04-24T12:18:58.034Z,28
2018-04-24T12:20:07.338Z,24
2018-04-24T12:21:16.826Z,28
2018-04-24T12:22:26.577Z,24
2018-04-24T12:23:36.339Z,24
2018-04-24T12:24:45.555Z,28
2018-04-24T12:25:54.821Z,28
2018-04-24T12:27:04.040Z,12
2018-04-24T12:28:13.799Z,20
2018-04-24T12:29:23.549Z,12
2018-04-24T12:30:32.949Z,4
2018-04-24T12:31:42.781Z,8
2018-04-24T12:32:52.004Z,12
2018-04-24T12:34:01.752Z,12
2018-04-24T12:35:10.971Z,28
2018-04-24T12:36:20.745Z,16
2018-04-24T12:37:29.963Z,12
2018-04-24T12:38:39.991Z,8
2018-04-24T12:39:49.803Z,8
2018-04-24T12:40:59.839Z,4
2018-04-24T12:42:09.054Z,4
2018-04-24T12:43:18.802Z,4
2018-04-24T12:44:28.555Z,4
2018-04-24T12:45:38.318Z,4
2018-04-24T12:46:47.537Z,12
2018-04-24T12:47:57.019Z,12
2018-04-24T12:49:05.974Z,16
2018-04-24T12:50:15.454Z,24
2018-04-24T12:51:24.945Z,24
2018-04-24T12:52:34.161Z,24
2018-04-24T12:53:43.921Z,20
2018-04-24T12:54:53.678Z,24
2018-04-24T12:56:03.425Z,24
2018-04-24T12:57:12.909Z,20
2018-04-24T12:58:22.397Z,20
2018-04-24T12:59:32.166Z,20
2018-04-24T13:00:41.663Z,20
2018-04-24T13:01:51.687Z,20
2018-04-24T13:03:00.908Z,12
2018-04-24T13:04:10.662Z,8
2018-04-24T13:05:20.413Z,12
2018-04-24T13:06:30.439Z,16
2018-04-24T13:07:40.194Z,12
2018-04-24T13:08:49.688Z,20
2018-04-24T13:09:59.287Z,16
2018-04-24T13:11:09.316Z,16
2018-04-24T13:12:18.264Z,20
2018-04-24T13:13:27.484Z,20
2018-04-24T13:14:37.380Z,20
2018-04-24T13:15:47.133Z,20
2018-04-24T13:16:56.968Z,20
2018-04-24T13:18:06.614Z,16
2018-04-24T13:19:16.464Z,16
2018-04-24T13:20:26.405Z,16
2018-04-24T13:21:35.356Z,16
2018-04-24T13:22:44.841Z,16
2018-04-24T13:23:54.411Z,16
2018-04-24T13:25:03.631Z,16
2018-04-24T13:26:13.143Z,16
2018-04-24T13:27:22.362Z,16
2018-04-24T13:28:31.842Z,20
2018-04-24T13:29:41.328Z,16
2018-04-24T13:30:51.344Z,12
2018-04-24T13:32:00.827Z,16
2018-04-24T13:33:10.042Z,16
2018-04-24T13:34:19.820Z,16
2018-04-24T13:35:29.036Z,16
2018-04-24T13:36:37.983Z,16
2018-04-24T13:37:46.936Z,12
2018-04-24T13:38:56.420Z,12
2018-04-24T13:40:05.911Z,8
2018-04-24T13:41:15.493Z,12
2018-04-24T13:42:24.757Z,16
2018-04-24T13:43:34.511Z,12
2018-04-24T13:44:44.011Z,8
2018-04-24T13:45:53.226Z,16
2018-04-24T13:47:02.983Z,16
2018-04-24T13:48:12.205Z,16
2018-04-24T13:49:21.759Z,16
2018-04-24T13:50:31.269Z,12
2018-04-24T13:51:40.281Z,16
2018-04-24T13:52:50.037Z,16
2018-04-24T13:53:59.812Z,8
2018-04-24T13:55:09.029Z,16
2018-04-24T13:56:18.787Z,12
2018-04-24T13:57:28.857Z,12
2018-04-24T13:58:38.369Z,16
2018-04-24T13:59:47.584Z,8
2018-04-24T14:00:56.659Z,8
2018-04-24T14:02:06.494Z,12
2018-04-24T14:03:15.975Z,12
2018-04-24T14:04:25.467Z,12
2018-04-24T14:05:35.214Z,12
2018-04-24T14:06:44.435Z,12
2018-04-24T14:07:53.920Z,12
2018-04-24T14:09:03.415Z,8
2018-04-24T14:10:12.629Z,8
2018-04-24T14:11:22.379Z,12
2018-04-24T14:12:31.862Z,12
2018-04-24T14:13:41.082Z,8
2018-04-24T14:14:50.030Z,8
2018-04-24T14:15:59.782Z,8
2018-04-24T14:17:09.271Z,12
2018-04-24T14:18:19.295Z,8
2018-04-24T14:19:28.791Z,8
2018-04-24T14:20:38.006Z,8
2018-04-24T14:21:48.065Z,12
2018-04-24T14:22:57.913Z,12
2018-04-24T14:24:07.673Z,12
2018-04-24T14:25:17.154Z,12
2018-04-24T14:26:27.185Z,4
2018-04-24T14:27:36.950Z,8
2018-04-24T14:28:46.444Z,8
2018-04-24T14:29:55.665Z,8
2018-04-24T14:31:04.616Z,8
2018-04-24T14:32:14.100Z,8
2018-04-24T14:33:23.855Z,8
2018-04-24T14:34:33.607Z,4
2018-04-24T14:35:43.355Z,4
2018-04-24T14:36:52.310Z,8
2018-04-24T14:38:01.277Z,4
2018-04-24T14:39:10.232Z,4
2018-04-24T14:40:19.447Z,8
2018-04-24T14:41:28.678Z,4
2018-04-24T14:42:39.026Z,8
2018-04-24T14:43:49.419Z,4
2018-04-24T14:44:59.562Z,8
2018-04-24T14:46:08.554Z,4
2018-04-24T14:47:18.390Z,4
2018-04-24T14:48:28.259Z,4
2018-04-24T14:49:37.343Z,8
2018-04-24T14:50:47.006Z,4
2018-04-24T14:51:56.970Z,4
2018-04-24T14:53:06.841Z,8
2018-04-24T14:54:16.713Z,4
2018-04-24T14:55:26.446Z,8
2018-04-24T14:56:35.811Z,4
2018-04-24T14:57:46.037Z,4
2018-04-24T14:58:55.088Z,4
2018-04-24T15:00:04.419Z,4
2018-04-24T15:01:13.778Z,4
2018-04-24T15:02:23.674Z,4
2018-04-24T15:03:33.951Z,4
2018-04-24T15:04:43.503Z,4
2018-04-24T15:05:53.241Z,0
2018-04-24T15:07:02.943Z,0
2018-04-24T15:08:12.768Z,4
2018-04-24T15:09:22.520Z,4
2018-04-24T15:10:31.832Z,4
2018-04-24T15:11:41.366Z,4
2018-04-24T15:12:51.467Z,4
2018-04-24T15:14:01.214Z,4
2018-04-24T15:15:10.937Z,4
2018-04-24T15:16:20.650Z,4
2018-04-24T15:17:30.335Z,4
2018-04-24T15:18:39.961Z,0
2018-04-24T15:19:49.717Z,0
2018-04-24T15:20:59.584Z,4
2018-04-24T15:22:09.120Z,4
2018-04-24T15:23:18.875Z,4
2018-04-24T15:24:27.826Z,4
2018-04-24T15:25:37.440Z,4
2018-04-24T15:26:47.329Z,4
2018-04-24T15:27:56.348Z,4
2018-04-24T15:29:06.128Z,4
2018-04-24T15:30:16.153Z,4
2018-04-24T15:31:25.679Z,4
2018-04-24T15:32:35.088Z,4
2018-04-24T15:33:44.886Z,0
2018-04-24T15:34:54.420Z,0
2018-04-24T15:36:04.073Z,0
2018-04-24T15:37:13.831Z,0
2018-04-24T15:38:23.049Z,4
2018-04-24T15:39:32.587Z,4
2018-04-24T15:40:42.263Z,0
2018-04-24T15:41:51.936Z,4
2018-04-24T15:43:01.167Z,4
2018-04-24T15:44:10.730Z,4
2018-04-24T15:45:20.756Z,4
2018-04-24T15:46:30.249Z,0
2018-04-24T15:47:40.015Z,4
2018-04-24T15:48:49.510Z,4
2018-04-24T15:49:59.342Z,4
2018-04-24T15:51:08.296Z,4
2018-04-24T15:52:17.525Z,4
2018-04-24T15:53:27.009Z,0
2018-04-24T15:54:36.489Z,4
2018-04-24T15:55:45.500Z,4
2018-04-24T15:56:55.276Z,0
2018-04-24T15:58:04.785Z,0
2018-04-24T15:59:14.066Z,4
2018-04-24T16:00:24.045Z,0
2018-04-24T16:01:34.310Z,4
2018-04-24T16:02:43.930Z,0
2018-04-24T16:03:54.660Z,0
2018-04-24T16:05:04.931Z,4
2018-04-24T16:06:14.655Z,0
2018-04-24T16:07:24.390Z,0
2018-04-24T16:08:34.568Z,0
2018-04-24T16:09:44.853Z,0
2018-04-24T16:10:55.838Z,4
2018-04-24T16:12:06.190Z,4
2018-04-24T16:13:15.755Z,0
2018-04-24T16:14:25.733Z,0
2018-04-24T16:15:35.705Z,0
2018-04-24T16:16:46.713Z,0
2018-04-24T16:17:57.154Z,0
2018-04-24T16:19:06.705Z,0
2018-04-24T16:20:17.005Z,0
2018-04-24T16:21:27.101Z,0
2018-04-24T16:22:36.488Z,0
2018-04-24T16:23:46.605Z,0
2018-04-24T16:24:56.472Z,0
2018-04-24T16:26:06.336Z,0
2018-04-24T16:27:16.285Z,4
2018-04-24T16:28:26.462Z,4
2018-04-24T16:29:36.011Z,4
2018-04-24T16:30:46.064Z,4
2018-04-24T16:31:55.933Z,4
2018-04-24T16:33:05.467Z,4
2018-04-24T16:34:14.421Z,4
2018-04-24T16:35:23.905Z,0
2018-04-24T16:36:33.394Z,0
2018-04-24T16:37:42.608Z,0
2018-04-24T16:38:52.362Z,0
2018-04-24T16:40:01.850Z,0
2018-04-24T16:41:11.507Z,0
2018-04-24T16:42:21.519Z,0
2018-04-24T16:43:31.019Z,4
2018-04-24T16:44:40.502Z,4
2018-04-24T16:45:49.720Z,4
2018-04-24T16:46:59.135Z,4
2018-04-24T16:48:08.216Z,0
2018-04-24T16:49:17.641Z,0
2018-04-24T16:50:27.583Z,0
2018-04-24T16:51:36.751Z,0
2018-04-24T16:52:45.702Z,0
2018-04-24T16:53:55.720Z,0
2018-04-24T16:55:05.208Z,0
2018-04-24T16:56:15.475Z,0
2018-04-24T16:57:25.045Z,0
2018-04-24T16:58:34.261Z,0
2018-04-24T16:59:44.013Z,0
2018-04-24T17:00:54.380Z,0
2018-04-24T17:02:04.399Z,4